Time;durP1;ratioP1;P1;durP2;ratioP2;P2;SDS_P1;SDS_P2;PMS_P1;PMS_P2;Temp;Humidity;BMP_temperature;BMP_pressure;BME280_temperature;BME280_humidity;BME280_pressure;Samples;Min_cycle;Max_cycle;Signal;HPM_P1;HPM_P2
2022/09/09 00:02:28;;;;;;;3.47;1.70;;;;;;;14.60;100.00;97809.31;5105132;28;20221;-74
2022/09/09 00:05:01;;;;;;;3.87;2.03;;;;;;;14.68;100.00;97806.78;5103210;28;20263;-74
2022/09/09 00:07:42;;;;;;;5.10;2.43;;;;;;;14.68;100.00;97802.31;5101445;28;20692;-74
2022/09/09 00:10:19;;;;;;;3.33;2.13;;;;;;;14.73;100.00;97805.38;5100097;28;20718;-75
2022/09/09 00:12:56;;;;;;;5.67;2.40;;;;;;;14.71;100.00;97795.84;5103074;28;20226;-74
2022/09/09 00:15:26;;;;;;;3.33;2.00;;;;;;;14.68;100.00;97802.31;5103036;28;20232;-74
2022/09/09 00:17:59;;;;;;;4.83;2.20;;;;;;;14.67;100.00;97797.13;5106070;28;20226;-74
2022/09/09 00:20:32;;;;;;;4.97;2.50;;;;;;;14.70;100.00;97799.50;5090749;28;20246;-74
2022/09/09 00:23:09;;;;;;;3.97;2.10;;;;;;;14.74;100.00;97795.59;5102808;28;20267;-74
2022/09/09 00:25:45;;;;;;;3.57;2.27;;;;;;;14.75;100.00;97791.94;5104677;28;20269;-74
2022/09/09 00:28:18;;;;;;;4.73;2.03;;;;;;;14.77;100.00;97795.28;5112607;28;20214;-75
2022/09/09 00:30:48;;;;;;;4.27;2.03;;;;;;;14.86;100.00;97786.50;5102759;28;20228;-74
2022/09/09 00:33:18;;;;;;;5.73;2.43;;;;;;;14.94;100.00;97787.47;5100926;28;20565;-75
2022/09/09 00:35:48;;;;;;;3.27;1.80;;;;;;;15.06;99.53;97793.47;5100065;28;20534;-74
2022/09/09 00:38:20;;;;;;;3.30;1.93;;;;;;;15.08;99.05;97787.03;5102262;28;20267;-75
2022/09/09 00:40:51;;;;;;;3.60;1.87;;;;;;;15.13;98.33;97783.94;5102554;28;20330;-75
2022/09/09 00:43:27;;;;;;;3.53;1.67;;;;;;;15.16;97.79;97786.31;5104425;28;20286;-75
2022/09/09 00:46:18;;;;;;;3.57;2.03;;;;;;;15.15;97.59;97784.66;5102449;28;20249;-75
2022/09/09 00:48:52;;;;;;;2.33;1.70;;;;;;;15.23;96.70;97784.75;5100496;28;20382;-73
2022/09/09 00:51:26;;;;;;;1.90;1.40;;;;;;;15.26;96.20;97787.97;5105311;28;20312;-73
2022/09/09 00:54:10;;;;;;;4.30;1.60;;;;;;;15.31;95.96;97784.88;5090311;28;20225;-73
2022/09/09 00:56:42;;;;;;;3.53;1.67;;;;;;;15.34;95.81;97792.63;5102347;28;20233;-73
2022/09/09 00:59:25;;;;;;;5.63;1.80;;;;;;;15.38;95.27;97788.69;5103446;28;20250;-74
2022/09/09 01:01:54;;;;;;;2.27;1.67;;;;;;;15.42;94.38;97792.75;5090976;28;20636;-73
2022/09/09 01:04:30;;;;;;;2.80;1.60;;;;;;;15.51;93.29;97791.88;5102205;28;20223;-73
2022/09/09 01:07:09;;;;;;;3.20;1.50;;;;;;;15.54;92.90;97797.78;5104432;28;20256;-73
2022/09/09 01:09:46;;;;;;;4.07;1.80;;;;;;;15.59;92.04;97790.16;5089750;28;20531;-73
2022/09/09 01:12:16;;;;;;;3.17;1.60;;;;;;;15.65;90.52;97786.91;5102061;28;20230;-73
2022/09/09 01:14:48;;;;;;;3.27;1.80;;;;;;;15.65;90.72;97788.75;5103345;28;20697;-73
2022/09/09 01:17:25;;;;;;;3.80;1.50;;;;;;;15.68;90.98;97785.78;5102913;28;20643;-73
2022/09/09 01:20:11;;;;;;;2.50;1.50;;;;;;;15.62;91.49;97784.56;5101515;28;20253;-73
2022/09/09 01:22:46;;;;;;;1.97;1.27;;;;;;;15.63;91.62;97783.56;5102859;28;20268;-73
2022/09/09 01:25:31;;;;;;;2.00;1.50;;;;;;;15.58;91.68;97782.34;5099440;28;20226;-73
2022/09/09 01:28:04;;;;;;;1.93;1.40;;;;;;;15.55;92.02;97787.94;5049149;28;20265;-73
2022/09/09 01:30:32;;;;;;;2.13;1.43;;;;;;;15.56;91.88;97801.13;5103130;28;20280;-73
2022/09/09 01:33:01;;;;;;;1.43;1.30;;;;;;;15.57;92.13;97799.31;5102182;28;20348;-75
2022/09/09 01:35:40;;;;;;;3.97;1.33;;;;;;;15.53;92.66;97800.56;5101277;28;20325;-75
2022/09/09 01:38:07;;;;;;;4.50;1.60;;;;;;;15.51;92.98;97807.88;5101402;28;20632;-73
2022/09/09 01:40:34;;;;;;;3.10;1.53;;;;;;;15.51;92.78;97813.19;5104587;28;20278;-73
2022/09/09 01:43:02;;;;;;;2.57;1.47;;;;;;;15.49;93.18;97807.16;5101380;28;20579;-73
2022/09/09 01:45:31;;;;;;;4.20;1.70;;;;;;;15.51;92.93;97807.88;5101242;28;20226;-74
2022/09/09 01:47:59;;;;;;;2.73;1.50;;;;;;;15.50;93.07;97795.50;5101203;28;20644;-73
2022/09/09 01:50:25;;;;;;;2.67;1.50;;;;;;;15.51;93.18;97803.38;5097237;28;20282;-73
2022/09/09 01:52:57;;;;;;;4.03;2.00;;;;;;;15.51;92.89;97803.38;5099534;28;20282;-73
2022/09/09 01:55:30;;;;;;;2.47;1.47;;;;;;;15.56;92.54;97800.25;5101200;28;20254;-73
2022/09/09 01:58:11;;;;;;;2.90;1.67;;;;;;;15.58;92.12;97806.31;5102180;28;20229;-73
2022/09/09 02:00:44;;;;;;;2.07;1.40;;;;;;;15.61;91.75;97803.34;5087643;28;20242;-74
2022/09/09 02:03:20;;;;;;;2.90;1.53;;;;;;;15.61;91.62;97798.00;5100964;28;20276;-73
2022/09/09 02:05:56;;;;;;;2.87;1.57;;;;;;;15.58;92.14;97798.31;5101932;28;20233;-74
2022/09/09 02:08:30;;;;;;;3.03;1.60;;;;;;;15.51;91.78;97797.22;5101653;28;20265;-73
2022/09/09 02:11:02;;;;;;;2.57;1.23;;;;;;;15.42;92.11;97792.75;5100858;28;20257;-73
2022/09/09 02:13:33;;;;;;;2.80;1.63;;;;;;;15.25;92.19;97788.13;5100823;28;20508;-73
2022/09/09 02:16:07;;;;;;;3.10;1.30;;;;;;;15.07;94.00;97792.47;5097809;28;20230;-76
2022/09/09 02:18:39;;;;;;;3.47;1.50;;;;;;;14.95;95.38;97801.59;5099030;28;20524;-75
2022/09/09 02:21:07;;;;;;;1.50;1.40;;;;;;;14.85;96.26;97803.44;5100600;28;20689;-75
2022/09/09 02:23:35;;;;;;;3.80;1.53;;;;;;;14.75;96.80;97805.25;5102215;28;20227;-75
2022/09/09 02:26:03;;;;;;;3.20;1.60;;;;;;;14.64;97.62;97805.38;5101949;28;20257;-75
2022/09/09 02:28:34;;;;;;;1.93;1.40;;;;;;;14.56;98.45;97797.25;5100539;28;20268;-75
2022/09/09 02:31:01;;;;;;;2.27;1.50;;;;;;;14.47;99.32;97798.06;5100505;28;20219;-75
2022/09/09 02:33:34;;;;;;;2.27;1.57;;;;;;;14.36;99.64;97793.72;5102666;28;20233;-75
2022/09/09 02:36:06;;;;;;;2.40;1.37;;;;;;;14.32;99.33;97800.31;5100376;28;20233;-74
2022/09/09 02:38:39;;;;;;;1.37;1.13;;;;;;;14.25;99.64;97808.97;5100494;28;20236;-73
2022/09/09 02:41:06;;;;;;;1.97;1.10;;;;;;;14.15;100.00;97818.69;5100614;28;20249;-74
2022/09/09 02:43:37;;;;;;;2.53;1.30;;;;;;;14.08;100.00;97812.22;5101546;28;20530;-74
2022/09/09 02:46:16;;;;;;;1.47;1.07;;;;;;;14.08;100.00;97806.91;5100476;28;20225;-74
2022/09/09 02:48:52;;;;;;;3.00;1.30;;;;;;;14.02;100.00;97807.47;5100311;28;20225;-74
2022/09/09 02:51:30;;;;;;;2.53;1.30;;;;;;;13.96;100.00;97803.53;5103473;28;20236;-74
2022/09/09 02:54:08;;;;;;;1.60;1.33;;;;;;;13.89;100.00;97796.22;5100153;28;20302;-74
2022/09/09 02:56:46;;;;;;;2.73;1.40;;;;;;;13.81;100.00;97793.41;5100186;28;20225;-74
2022/09/09 02:59:15;;;;;;;2.60;1.30;;;;;;;13.74;100.00;97797.59;5103408;28;20270;-74
2022/09/09 03:01:41;;;;;;;3.13;1.40;;;;;;;13.60;100.00;97780.19;5100566;28;20285;-74
2022/09/09 03:04:08;;;;;;;3.57;1.30;;;;;;;13.54;100.00;97778.06;5104413;28;20283;-74
2022/09/09 03:06:35;;;;;;;1.87;1.67;;;;;;;13.48;100.00;97770.63;5104361;28;20224;-74
2022/09/09 03:09:02;;;;;;;3.33;1.70;;;;;;;13.49;100.00;97771.44;5106895;28;20614;-74
2022/09/09 03:11:29;;;;;;;1.77;1.50;;;;;;;13.41;100.00;97768.63;5103610;28;20229;-73
2022/09/09 03:13:56;;;;;;;3.07;1.80;;;;;;;13.37;100.00;97769.84;5104301;28;20268;-73
2022/09/09 03:16:25;;;;;;;2.90;1.93;;;;;;;13.33;100.00;97771.09;5104242;28;20225;-73
2022/09/09 03:18:52;;;;;;;5.17;1.80;;;;;;;13.30;100.00;97776.66;5107505;28;20229;-74
2022/09/09 03:21:18;;;;;;;3.33;1.77;;;;;;;13.30;100.00;97776.66;5104035;28;20636;-74
2022/09/09 03:23:45;;;;;;;3.37;1.90;;;;;;;13.29;100.00;97774.97;5104080;28;20251;-74
2022/09/09 03:26:14;;;;;;;3.13;1.83;;;;;;;13.22;100.00;97784.44;5103961;28;20224;-74
2022/09/09 03:28:41;;;;;;;2.60;1.60;;;;;;;13.20;100.00;97784.56;5107277;28;20224;-74
2022/09/09 03:31:10;;;;;;;4.50;1.90;;;;;;;13.21;100.00;97769.50;5100462;28;20324;-74
2022/09/09 03:33:38;;;;;;;1.97;1.63;;;;;;;13.22;100.00;97779.13;5100423;28;20234;-74
2022/09/09 03:36:05;;;;;;;3.33;2.10;;;;;;;13.20;100.00;97792.53;5101935;28;20646;-73
2022/09/09 03:38:33;;;;;;;3.30;1.70;;;;;;;13.21;100.00;97790.72;5107042;28;20263;-73
2022/09/09 03:41:01;;;;;;;3.27;1.63;;;;;;;13.19;100.00;97788.19;5103626;28;20252;-73
2022/09/09 03:43:29;;;;;;;4.10;1.90;;;;;;;13.19;100.00;97790.00;5103722;28;20365;-73
2022/09/09 03:45:56;;;;;;;3.43;1.80;;;;;;;13.25;100.00;97792.13;5103547;28;20228;-73
2022/09/09 03:48:24;;;;;;;4.97;2.10;;;;;;;13.22;100.00;97795.91;5106837;28;20233;-73
2022/09/09 03:50:55;;;;;;;2.30;1.70;;;;;;;13.22;100.00;97795.91;5103509;28;20267;-73
2022/09/09 03:53:24;;;;;;;4.87;2.13;;;;;;;13.27;100.00;97792.84;5103312;28;20259;-73
2022/09/09 03:55:54;;;;;;;3.33;1.83;;;;;;;13.39;100.00;97794.47;5103707;28;20229;-73
2022/09/09 03:58:21;;;;;;;2.67;2.00;;;;;;;13.54;100.00;97795.78;5105785;28;20647;-73
2022/09/09 04:00:54;;;;;;;5.47;2.17;;;;;;;13.71;100.00;97788.06;5103185;28;20241;-73
2022/09/09 04:03:22;;;;;;;5.30;2.40;;;;;;;13.83;100.00;97792.31;5101947;28;20378;-73
2022/09/09 04:05:51;;;;;;;2.97;2.17;;;;;;;13.95;100.00;97793.88;5104515;28;20232;-73
2022/09/09 04:08:19;;;;;;;3.80;2.23;;;;;;;14.07;100.00;97787.50;5104669;28;20233;-73
2022/09/09 04:10:46;;;;;;;2.40;1.93;;;;;;;14.14;100.00;97795.75;5103134;28;20222;-72
2022/09/09 04:13:15;;;;;;;2.73;1.83;;;;;;;14.26;100.00;97789.38;5102432;28;20628;-74
2022/09/09 04:15:43;;;;;;;2.87;1.90;;;;;;;14.35;100.00;97793.88;5104747;28;20539;-75
2022/09/09 04:18:10;;;;;;;4.60;2.33;;;;;;;14.45;100.00;97800.03;5104207;28;20630;-75
2022/09/09 04:20:36;;;;;;;2.70;2.00;;;;;;;14.43;100.00;97796.69;5102955;28;20346;-74
2022/09/09 04:23:03;;;;;;;4.13;1.90;;;;;;;14.45;100.00;97795.56;5102914;28;20695;-75
2022/09/09 04:25:31;;;;;;;3.60;1.80;;;;;;;14.45;100.00;97789.41;5104269;28;20226;-75
2022/09/09 04:27:59;;;;;;;3.17;1.80;;;;;;;14.46;100.00;97797.25;5102460;28;20259;-75
2022/09/09 04:30:27;;;;;;;2.73;1.70;;;;;;;14.48;100.00;97803.25;5102682;28;20226;-75
2022/09/09 04:32:53;;;;;;;4.40;2.00;;;;;;;14.49;100.00;97801.47;5102677;28;20316;-73
2022/09/09 04:35:20;;;;;;;2.83;1.80;;;;;;;14.52;100.00;97806.47;5104122;28;20225;-73
2022/09/09 04:37:48;;;;;;;2.17;1.70;;;;;;;14.56;100.00;97803.44;5103942;28;20308;-74
2022/09/09 04:40:15;;;;;;;2.20;1.40;;;;;;;14.61;100.00;97808.31;5102519;28;20596;-75
2022/09/09 04:42:43;;;;;;;2.67;1.60;;;;;;;14.66;100.00;97808.75;5102638;28;20280;-74
2022/09/09 04:45:13;;;;;;;4.67;1.70;;;;;;;14.70;100.00;97805.66;5104196;28;20231;-74
2022/09/09 04:47:40;;;;;;;5.60;1.80;;;;;;;14.77;100.00;97811.25;5103508;28;20255;-73
2022/09/09 04:50:08;;;;;;;2.37;1.87;;;;;;;14.78;100.00;97807.66;5102543;28;20313;-73
2022/09/09 04:52:35;;;;;;;2.23;1.50;;;;;;;14.82;100.00;97809.88;5099425;28;20279;-75
2022/09/09 04:55:01;;;;;;;3.43;1.60;;;;;;;14.81;99.74;97805.53;5102455;28;20705;-75
2022/09/09 04:57:28;;;;;;;3.07;1.60;;;;;;;14.75;99.70;97807.91;5103801;28;20549;-75
2022/09/09 04:59:56;;;;;;;2.30;1.70;;;;;;;14.67;100.00;97810.44;5102379;28;20560;-75
2022/09/09 05:02:23;;;;;;;3.63;1.60;;;;;;;14.56;100.00;97811.41;5102268;28;20227;-75
2022/09/09 05:04:50;;;;;;;3.37;1.73;;;;;;;14.46;100.00;97807.03;5103954;28;20282;-75
2022/09/09 05:07:17;;;;;;;2.93;1.50;;;;;;;14.46;100.00;97812.34;5103768;28;20229;-74
2022/09/09 05:09:45;;;;;;;2.13;1.60;;;;;;;14.46;100.00;97823.84;5102275;28;20258;-74
2022/09/09 05:12:12;;;;;;;3.90;1.73;;;;;;;14.47;100.00;97822.00;5102237;28;20639;-73
2022/09/09 05:14:38;;;;;;;1.73;1.47;;;;;;;14.49;100.00;97831.53;5103458;28;20267;-73
2022/09/09 05:17:06;;;;;;;3.17;1.80;;;;;;;14.49;100.00;97828.03;5103910;28;20277;-73
2022/09/09 05:19:33;;;;;;;3.70;1.70;;;;;;;14.58;100.00;97832.53;5100206;28;20283;-73
2022/09/09 05:22:00;;;;;;;1.80;1.50;;;;;;;14.72;99.50;97840.13;5101709;28;20245;-75
2022/09/09 05:24:27;;;;;;;2.30;1.43;;;;;;;14.85;99.04;97841.50;5102827;28;20304;-73
2022/09/09 05:26:57;;;;;;;2.67;1.40;;;;;;;14.87;99.78;97844.03;5103536;28;20225;-74
2022/09/09 05:29:24;;;;;;;3.30;1.30;;;;;;;14.84;100.00;97833.69;5101482;28;20238;-75
2022/09/09 05:31:51;;;;;;;2.57;1.40;;;;;;;14.79;100.00;97835.94;5101465;28;20306;-74
2022/09/09 05:34:19;;;;;;;2.87;1.63;;;;;;;14.75;100.00;97832.69;5102525;28;20274;-74
2022/09/09 05:36:46;;;;;;;3.60;1.60;;;;;;;14.75;100.00;97829.19;5102988;28;20268;-74
2022/09/09 05:39:13;;;;;;;2.47;1.53;;;;;;;14.77;100.00;97835.19;5101483;28;20265;-74
2022/09/09 05:41:40;;;;;;;2.17;1.50;;;;;;;14.85;100.00;97832.72;5101180;28;20311;-74
2022/09/09 05:44:06;;;;;;;3.30;1.80;;;;;;;14.99;100.00;97838.47;5102328;28;20230;-74
2022/09/09 05:46:33;;;;;;;1.53;1.37;;;;;;;15.12;99.46;97839.00;5101587;28;20229;-75
2022/09/09 05:49:00;;;;;;;3.50;1.40;;;;;;;15.22;98.48;97833.69;5101340;28;20287;-74
2022/09/09 05:51:30;;;;;;;3.17;1.50;;;;;;;15.38;96.20;97836.59;5101189;28;20288;-73
2022/09/09 05:53:58;;;;;;;2.33;1.37;;;;;;;15.45;95.57;97845.72;5102278;28;20230;-74
2022/09/09 05:56:26;;;;;;;4.33;1.70;;;;;;;15.49;95.27;97842.63;5102882;28;20672;-73
2022/09/09 05:58:54;;;;;;;2.10;1.50;;;;;;;15.55;94.80;97838.53;5099101;28;20257;-73
2022/09/09 06:01:23;;;;;;;2.73;1.30;;;;;;;15.71;94.42;97849.44;5099536;28;20643;-74
2022/09/09 06:03:51;;;;;;;4.77;1.60;;;;;;;15.86;93.57;97845.31;5101031;28;20517;-74
2022/09/09 06:06:21;;;;;;;2.37;1.30;;;;;;;15.98;93.38;97854.81;5099711;28;20226;-74
2022/09/09 06:08:52;;;;;;;1.63;1.40;;;;;;;16.02;93.20;97852.56;5099638;28;20279;-73
2022/09/09 06:11:20;;;;;;;3.63;1.43;;;;;;;16.13;93.18;97849.72;5098495;28;20226;-73
2022/09/09 06:13:47;;;;;;;3.00;1.30;;;;;;;16.27;92.76;97841.22;5101354;28;20621;-74
2022/09/09 06:16:17;;;;;;;3.37;1.57;;;;;;;16.38;92.61;97843.72;5099822;28;20280;-73
2022/09/09 06:18:44;;;;;;;3.50;1.80;;;;;;;16.48;92.03;97839.19;5099249;28;20269;-74
2022/09/09 06:21:16;;;;;;;3.73;1.70;;;;;;;16.55;91.71;97848.28;5099152;28;20242;-74
2022/09/09 06:23:43;;;;;;;1.83;1.40;;;;;;;16.65;91.18;97845.53;5102588;28;20222;-73
2022/09/09 06:26:14;;;;;;;2.17;1.43;;;;;;;16.72;90.57;97847.47;5099291;28;20226;-74
2022/09/09 06:28:42;;;;;;;2.53;1.47;;;;;;;16.82;89.46;97850.06;5099212;28;20258;-74
2022/09/09 06:31:12;;;;;;;2.93;1.53;;;;;;;16.89;88.88;97857.28;5099049;28;20303;-73
2022/09/09 06:33:40;;;;;;;1.67;1.33;;;;;;;16.96;88.61;97855.69;5096058;28;20314;-73
2022/09/09 06:36:09;;;;;;;2.70;1.60;;;;;;;17.05;87.40;97864.63;5098991;28;20501;-73
2022/09/09 06:38:35;;;;;;;2.93;1.60;;;;;;;17.12;86.40;97861.19;5097109;28;20309;-73
2022/09/09 06:41:02;;;;;;;3.17;1.47;;;;;;;17.19;86.74;97864.09;5099130;28;20331;-74
2022/09/09 06:43:30;;;;;;;2.27;1.30;;;;;;;17.24;86.08;97859.97;5102052;28;20603;-74
2022/09/09 06:45:59;;;;;;;3.00;1.60;;;;;;;17.31;85.29;97855.69;5098933;28;20223;-73
2022/09/09 06:48:27;;;;;;;2.23;1.43;;;;;;;17.37;85.16;97860.44;5098879;28;20628;-73
2022/09/09 06:51:02;;;;;;;2.33;1.33;;;;;;;17.41;84.96;97861.81;5097816;28;20547;-74
2022/09/09 06:53:29;;;;;;;2.17;1.20;;;;;;;17.48;84.64;97854.00;5057480;28;20226;-74
2022/09/09 06:55:55;;;;;;;2.77;1.63;;;;;;;17.50;84.60;97858.22;5057624;28;20256;-76
2022/09/09 06:58:23;;;;;;;3.60;1.67;;;;;;;17.64;83.45;97865.69;5058451;28;20320;-75
2022/09/09 07:00:51;;;;;;;4.50;1.67;;;;;;;17.77;82.32;97863.44;5059529;28;20231;-77
2022/09/09 07:03:17;;;;;;;3.60;1.60;;;;;;;17.92;81.52;97859.16;5060273;28;20573;-75
2022/09/09 07:05:44;;;;;;;2.40;1.33;;;;;;;17.98;81.20;97853.19;5056730;28;20313;-76
2022/09/09 07:08:11;;;;;;;1.93;1.33;;;;;;;18.10;80.77;97861.81;5058608;28;20404;-75
2022/09/09 07:10:38;;;;;;;2.50;1.20;;;;;;;18.17;80.65;97855.63;5059538;28;20255;-75
2022/09/09 07:13:05;;;;;;;3.90;1.50;;;;;;;18.27;80.46;97855.50;5060572;28;20643;-75
2022/09/09 07:15:33;;;;;;;4.30;1.50;;;;;;;18.39;80.55;97865.81;5058237;28;20640;-76
2022/09/09 07:18:03;;;;;;;1.47;1.23;;;;;;;18.46;79.88;97858.00;5058247;28;20232;-74
2022/09/09 07:20:30;;;;;;;2.10;1.10;;;;;;;18.57;79.75;97860.34;5059453;28;20285;-76
2022/09/09 07:22:58;;;;;;;1.40;1.20;;;;;;;18.64;79.97;97864.91;5060087;28;20219;-75
2022/09/09 07:25:26;;;;;;;2.63;1.33;;;;;;;18.72;78.98;97862.25;5058290;28;20232;-76
2022/09/09 07:27:57;;;;;;;3.73;1.37;;;;;;;18.77;79.30;97864.44;5058344;28;20228;-75
2022/09/09 07:30:24;;;;;;;2.67;1.47;;;;;;;18.82;79.39;97857.59;5060068;28;20587;-75
2022/09/09 07:32:52;;;;;;;2.20;1.27;;;;;;;18.91;79.30;97867.31;5057795;28;20227;-77
2022/09/09 07:35:20;;;;;;;1.90;1.37;;;;;;;19.01;78.99;97859.97;5058151;28;20227;-75
2022/09/09 07:37:47;;;;;;;1.90;1.50;;;;;;;19.12;78.15;97865.03;5058181;28;20262;-75
2022/09/09 07:40:14;;;;;;;2.23;1.50;;;;;;;19.20;78.13;97861.53;5059905;28;20642;-75
2022/09/09 07:42:40;;;;;;;1.70;1.40;;;;;;;19.23;77.13;97867.41;5059220;28;20283;-75
2022/09/09 07:45:07;;;;;;;2.87;1.33;;;;;;;19.27;76.12;97863.38;5058025;28;20309;-74
2022/09/09 07:47:34;;;;;;;3.47;1.40;;;;;;;19.40;74.78;97853.03;5057971;28;20576;-76
2022/09/09 07:50:01;;;;;;;4.20;1.40;;;;;;;19.60;74.72;97865.09;5061834;28;20576;-76
2022/09/09 07:52:29;;;;;;;2.90;1.33;;;;;;;19.79;74.20;97864.72;5087638;28;20256;-77
2022/09/09 07:54:56;;;;;;;1.90;1.23;;;;;;;19.93;74.49;97872.06;5102042;28;20275;-75
2022/09/09 07:57:23;;;;;;;2.00;1.60;;;;;;;19.83;73.47;97875.94;5100796;28;20287;-76
2022/09/09 07:59:50;;;;;;;2.20;1.40;;;;;;;19.56;73.10;97874.44;5102944;28;20574;-76
2022/09/09 08:02:17;;;;;;;1.83;1.43;;;;;;;19.30;74.46;97879.16;5103639;28;20237;-76
2022/09/09 08:04:43;;;;;;;3.17;1.40;;;;;;;19.23;75.42;97877.28;5101752;28;20256;-76
2022/09/09 08:07:10;;;;;;;3.77;1.47;;;;;;;19.30;75.47;97865.75;5101804;28;20257;-76
2022/09/09 08:09:38;;;;;;;3.20;1.20;;;;;;;19.33;74.95;97852.00;5102658;28;20227;-76
2022/09/09 08:12:08;;;;;;;4.43;1.37;;;;;;;19.30;74.02;97863.06;5103826;28;20222;-76
2022/09/09 08:14:35;;;;;;;2.90;1.23;;;;;;;19.33;74.79;97868.06;5101724;28;20233;-76
2022/09/09 08:17:02;;;;;;;1.73;1.07;;;;;;;19.39;74.56;97886.16;5101759;28;20227;-76
2022/09/09 08:19:29;;;;;;;5.20;1.43;;;;;;;19.46;73.56;97868.44;5102889;28;20326;-77
2022/09/09 08:21:56;;;;;;;3.50;1.47;;;;;;;19.69;73.19;97877.47;5103299;28;20245;-76
2022/09/09 08:24:23;;;;;;;4.53;1.50;;;;;;;19.85;72.99;97882.81;5099943;28;20593;-75
2022/09/09 08:26:51;;;;;;;2.80;1.10;;;;;;;19.96;73.18;97887.84;5101626;28;20257;-76
2022/09/09 08:29:18;;;;;;;2.20;1.17;;;;;;;19.98;72.93;97885.81;5102388;28;20265;-76
2022/09/09 08:31:47;;;;;;;5.30;1.57;;;;;;;20.09;72.56;97882.81;5103441;28;20701;-77
2022/09/09 08:34:14;;;;;;;2.80;1.17;;;;;;;20.13;68.94;97894.91;5101306;28;20257;-76
2022/09/09 08:36:43;;;;;;;5.00;1.00;;;;;;;20.32;66.88;97905.25;5101339;28;20258;-75
2022/09/09 08:39:11;;;;;;;0.87;0.80;;;;;;;20.66;65.77;97891.53;5102529;28;20642;-75
2022/09/09 08:42:00;;;;;;;2.47;1.00;;;;;;;20.93;64.05;97873.13;5102912;28;20245;-77
2022/09/09 08:44:38;;;;;;;2.77;1.23;;;;;;;20.81;64.92;97882.56;5101308;28;20268;-75
2022/09/09 08:47:14;;;;;;;1.97;1.00;;;;;;;20.41;65.11;97879.22;5102833;28;20295;-75
2022/09/09 08:50:01;;;;;;;1.90;0.90;;;;;;;20.11;67.06;97877.28;5101244;28;20298;-75
2022/09/09 08:52:30;;;;;;;2.13;1.00;;;;;;;19.93;68.33;97882.81;5099412;28;20247;-76
2022/09/09 08:55:04;;;;;;;3.03;1.03;;;;;;;19.67;69.32;97875.94;5102631;28;20219;-75
2022/09/09 08:57:34;;;;;;;2.17;0.90;;;;;;;19.67;69.60;97870.59;5101501;28;20563;-75
2022/09/09 09:00:01;;;;;;;1.73;0.90;;;;;;;19.61;69.91;97874.78;5100654;28;20276;-75
2022/09/09 09:02:40;;;;;;;2.47;0.90;;;;;;;19.69;70.42;97885.50;5100750;28;20303;-75
2022/09/09 09:05:20;;;;;;;3.93;1.00;;;;;;;19.78;70.64;97887.19;5098214;28;20229;-75
2022/09/09 09:08:00;;;;;;;2.60;0.80;;;;;;;20.05;66.17;97873.38;5100818;28;20530;-75
2022/09/09 09:10:40;;;;;;;1.27;0.80;;;;;;;20.39;64.01;97868.63;5100659;28;20258;-76
2022/09/09 09:13:15;;;;;;;1.93;0.93;;;;;;;20.85;60.61;97867.75;5099088;28;20257;-76
2022/09/09 09:15:45;;;;;;;1.10;0.80;;;;;;;21.18;60.78;97865.75;5100616;28;20257;-75
2022/09/09 09:18:15;;;;;;;1.60;0.80;;;;;;;21.50;59.40;97860.09;5098818;28;20549;-76
2022/09/09 09:20:51;;;;;;;2.90;1.00;;;;;;;21.94;57.29;97859.25;5103941;28;20261;-76
2022/09/09 09:23:23;;;;;;;1.40;0.90;;;;;;;22.17;55.14;97867.25;5099150;28;20218;-75
2022/09/09 09:25:53;;;;;;;1.90;0.83;;;;;;;22.26;54.94;97863.47;5099911;28;20299;-76
2022/09/09 09:28:25;;;;;;;1.40;0.70;;;;;;;22.19;54.63;97860.66;5101549;28;20644;-76
2022/09/09 09:30:58;;;;;;;2.43;1.00;;;;;;;22.09;55.83;97868.19;5101452;28;20233;-76
2022/09/09 09:33:30;;;;;;;1.30;0.80;;;;;;;21.91;55.62;97874.91;5100174;28;20222;-78
2022/09/09 09:35:58;;;;;;;0.80;0.70;;;;;;;21.68;56.63;97864.22;5100311;28;20261;-77
2022/09/09 09:38:27;;;;;;;2.80;1.00;;;;;;;21.51;55.78;97869.88;5103495;28;20495;-76
2022/09/09 09:40:57;;;;;;;2.10;0.83;;;;;;;21.28;57.10;97880.59;5100206;28;20222;-76
2022/09/09 09:43:28;;;;;;;1.53;0.70;;;;;;;21.08;58.82;97871.34;5099214;28;20288;-76
2022/09/09 09:45:57;;;;;;;2.27;0.80;;;;;;;20.89;59.65;97871.78;5099829;28;20303;-78
2022/09/09 09:48:25;;;;;;;4.00;1.20;;;;;;;20.68;62.43;97871.56;5102389;28;20635;-77
2022/09/09 09:50:54;;;;;;;2.90;1.00;;;;;;;20.59;62.43;97856.47;5099903;28;20342;-77
2022/09/09 09:53:24;;;;;;;2.30;0.80;;;;;;;20.73;56.82;97850.34;5100013;28;20247;-77
2022/09/09 09:55:56;;;;;;;1.93;0.60;;;;;;;20.82;54.62;97854.69;5100631;28;20314;-77
2022/09/09 09:58:23;;;;;;;1.00;0.60;;;;;;;20.81;55.79;97850.31;5101017;28;20247;-77
2022/09/09 10:00:53;;;;;;;1.40;0.70;;;;;;;20.90;55.85;97849.28;5099697;28;20230;-77
2022/09/09 10:03:24;;;;;;;1.43;0.73;;;;;;;20.95;56.21;97852.28;5099543;28;20246;-76
2022/09/09 10:05:51;;;;;;;1.63;0.60;;;;;;;21.06;55.71;97842.97;5102097;28;20227;-77
2022/09/09 10:08:18;;;;;;;1.47;0.80;;;;;;;21.15;55.93;97840.06;5099957;28;20223;-77
2022/09/09 10:11:01;;;;;;;1.07;0.60;;;;;;;21.30;54.71;97834.72;5097820;28;20644;-78
2022/09/09 10:13:36;;;;;;;1.30;0.60;;;;;;;21.49;54.78;97837.78;5099718;28;20222;-77
2022/09/09 10:16:16;;;;;;;2.10;0.77;;;;;;;21.63;54.35;97826.22;5101008;28;20282;-77
2022/09/09 10:18:57;;;;;;;1.13;0.70;;;;;;;21.80;52.60;97833.16;5099521;28;20265;-76
2022/09/09 10:21:42;;;;;;;1.00;0.60;;;;;;;21.95;53.37;97830.50;5100201;28;20230;-77
2022/09/09 10:24:26;;;;;;;1.40;0.60;;;;;;;22.08;52.31;97826.13;5086649;28;20265;-76
2022/09/09 10:26:59;;;;;;;1.83;0.80;;;;;;;22.18;51.04;97824.00;5099309;28;20238;-76
2022/09/09 10:29:52;;;;;;;1.73;0.70;;;;;;;22.24;51.85;97817.06;5101744;28;20620;-76
2022/09/09 10:32:38;;;;;;;2.23;0.83;;;;;;;22.34;51.50;97823.81;5088970;28;20545;-77
2022/09/09 10:35:13;;;;;;;1.60;0.70;;;;;;;22.45;51.05;97826.06;5099487;28;20313;-76
2022/09/09 10:37:54;;;;;;;1.17;0.70;;;;;;;22.63;49.21;97826.53;5099147;28;20225;-77
2022/09/09 10:40:32;;;;;;;3.50;0.80;;;;;;;22.48;49.33;97828.38;5099055;28;20223;-76
2022/09/09 10:43:10;;;;;;;1.37;0.83;;;;;;;22.42;50.32;97837.19;5099560;28;20303;-81
2022/09/09 10:45:48;;;;;;;2.03;0.70;;;;;;;22.64;50.27;97841.66;5100137;28;20225;-79
2022/09/09 10:48:38;;;;;;;2.30;0.77;;;;;;;23.15;49.46;97835.19;5099157;28;20229;-80
2022/09/09 10:51:23;;;;;;;1.53;0.90;;;;;;;23.79;48.18;97828.78;5101387;28;20227;-81
2022/09/09 10:54:01;;;;;;;2.87;0.70;;;;;;;24.07;46.80;97821.53;5093080;28;20261;-80
2022/09/09 10:56:29;;;;;;;0.93;0.80;;;;;;;24.22;46.54;97830.38;5101056;28;20222;-80
2022/09/09 10:59:01;;;;;;;1.63;0.80;;;;;;;24.20;47.10;97820.78;5101199;28;20301;-80
2022/09/09 11:01:33;;;;;;;3.60;0.90;;;;;;;23.76;45.41;97823.75;5098631;28;20701;-81
2022/09/09 11:04:07;;;;;;;2.70;0.80;;;;;;;23.41;46.11;97827.38;5097069;28;20254;-80
2022/09/09 11:06:40;;;;;;;1.40;0.80;;;;;;;23.22;46.78;97830.72;5099014;28;20315;-80
2022/09/09 11:09:16;;;;;;;1.10;0.70;;;;;;;22.85;48.36;97839.00;5100470;28;20548;-81
2022/09/09 11:11:50;;;;;;;3.93;1.20;;;;;;;22.76;49.78;97837.44;5098106;28;20314;-81
2022/09/09 11:14:22;;;;;;;3.83;1.27;;;;;;;22.63;50.88;97839.13;5098757;28;20280;-81
2022/09/09 11:16:53;;;;;;;1.67;0.70;;;;;;;22.25;52.15;97840.25;5095489;28;20301;-81
2022/09/09 11:19:28;;;;;;;1.50;0.90;;;;;;;21.89;53.12;97845.50;5098478;28;20549;-81
2022/09/09 11:21:57;;;;;;;2.10;0.90;;;;;;;21.41;56.76;97850.44;5098444;28;20245;-81
2022/09/09 11:24:29;;;;;;;3.93;1.20;;;;;;;20.29;69.47;97870.69;5103621;28;20733;-81
2022/09/09 11:27:02;;;;;;;9.87;1.57;;;;;;;19.18;74.67;97864.34;5103615;28;20280;-71
2022/09/09 11:30:16;;;;;;;5.63;1.23;;;;;;;18.27;83.75;97867.06;5102804;28;20366;-71
2022/09/09 11:33:21;;;;;;;2.17;1.07;;;;;;;17.99;91.45;97884.28;5100720;28;20690;-72
2022/09/09 11:36:00;;;;;;;3.80;1.13;;;;;;;17.96;93.30;97887.28;5102655;28;20222;-72
2022/09/09 11:38:28;;;;;;;4.73;1.10;;;;;;;18.03;94.98;97896.34;5099110;28;20308;-72
2022/09/09 11:40:59;;;;;;;2.97;1.00;;;;;;;17.99;92.08;97884.28;5102665;28;20266;-71
2022/09/09 11:43:31;;;;;;;0.80;0.80;;;;;;;18.28;87.72;97873.25;5102577;28;20250;-72
2022/09/09 11:46:02;;;;;;;1.20;0.90;;;;;;;18.73;87.28;97877.34;5103525;28;20537;-71
2022/09/09 11:48:34;;;;;;;1.10;0.60;;;;;;;19.06;78.66;97876.41;5103984;28;20264;-72
2022/09/09 11:51:07;;;;;;;1.23;0.60;;;;;;;19.41;79.67;97878.81;5102341;28;20229;-73